Data for 04/11/2010

Time Sea-Level Adjusted Pressure Absolute Pressure Temperature Relative Humidity Dew Point   
(mb) (inHg) (mb) (inHg) (C) (F) (%) (C) (F)
00:05 1016 30 846 24.98 4.5 40.2 34 -10.2 13.7
00:10 1016 30 846 24.98 4.5 40.1 33 -10.4 13.3
00:15 1016 30 845 24.95 4.5 40.1 34 -10.1 13.7
00:20 1016 30 845 24.95 4.4 40 34 -10 14
00:25 1016 30 845 24.95 4.3 39.7 35 -9.9 14.2
00:30 1016 30 846 24.98 4.2 39.6 35 -9.9 14.1
00:35 1016 30 845 24.95 4.3 39.7 35 -9.8 14.3
00:40 1016 30 846 24.98 4.1 39.5 36 -9.7 14.5
00:45 1016 30 846 24.98 4.1 39.3 36 -9.6 14.7
00:50 1016 30 845 24.95 4 39.2 37 -9.5 15
00:55 1016 30 845 24.95 4 39.2 36 -9.8 14.3
01:00 1016 30 845 24.95 4 39.3 36 -9.6 14.7
01:05 1016 30 845 24.95 3.9 39 37 -9.7 14.6
01:10 1016 30 845 24.95 3.7 38.6 36 -9.9 14.1
01:15 1016 30 845 24.95 3.6 38.4 36 -10 14
01:20 1016 30 846 24.98 3.3 38 37 -10.2 13.6
01:25 1016 30 845 24.95 3.1 37.6 37 -10.4 13.3
01:30 1016 30 846 24.98 2.9 37.2 37 -10.4 13.3
01:35 1016 30 845 24.95 2.8 37.1 37 -10.5 13.1
01:40 1016 30 846 24.98 2.7 36.9 36 -10.8 12.6
01:45 1016 30 846 24.98 2.7 36.8 37 -10.7 12.7
01:50 1016 30 845 24.95 2.5 36.5 38 -10.6 13
01:55 1016 30 845 24.95 2.5 36.4 37 -10.9 12.4
02:00 1016 30 845 24.95 2.5 36.4 37 -10.8 12.6
02:05 1016 30 845 24.95 2.4 36.3 37 -10.8 12.6
02:10 1016 30 846 24.98 2.3 36.2 37 -10.8 12.5
02:15 1016 30 845 24.95 2.2 36 37 -10.9 12.4
02:20 1016 30 845 24.95 2.2 36 37 -10.9 12.3
02:25 1016 30 845 24.95 2.2 36 38 -10.9 12.4
02:30 1016 30 845 24.95 2.2 36 38 -10.8 12.5
02:35 1016 30 845 24.95 2.2 35.9 37 -10.9 12.3
02:40 1016 30 846 24.98 2.1 35.9 38 -10.8 12.5
02:45 1016 30 845 24.95 2.1 35.8 38 -10.9 12.4
02:50 1016 30 845 24.95 2.1 35.8 37 -11.1 12.1
02:55 1016 30 845 24.95 2 35.7 37 -11.1 12.1
03:00 1016 30 845 24.95 2.1 35.7 37 -11.2 11.9
03:05 1016 30 845 24.95 2.1 35.7 37 -11 12.1
03:10 1016 30 845 24.95 1.9 35.5 37 -11.2 11.9
03:15 1016 30 845 24.95 1.9 35.4 37 -11.3 11.7
03:20 1016 30 845 24.95 1.8 35.3 38 -11.2 11.8
03:25 1016 30 845 24.95 1.8 35.2 37 -11.3 11.6
03:30 1016 30 845 24.95 1.7 35.1 38 -11.2 11.8
03:35 1016 30 845 24.95 1.6 34.8 39 -11.1 12
03:40 1016 30 845 24.95 1.5 34.7 38 -11.4 11.6
03:45 1016 30 845 24.95 1.5 34.6 38 -11.5 11.4
03:50 1016 30 845 24.95 1.4 34.5 39 -11.2 11.8
03:55 1016 30 845 24.95 1.4 34.5 38 -11.5 11.2
04:00 1016 30 845 24.95 1.2 34.2 39 -11.2 11.8
04:05 1015 29.97 845 24.95 1.2 34.1 39 -11.5 11.3
04:10 1015 29.97 845 24.95 1 33.8 39 -11.5 11.4
04:15 1015 29.97 844 24.92 0.8 33.5 40 -11.4 11.4
04:20 1015 29.97 844 24.92 0.8 33.5 39 -11.6 11.1
04:25 1015 29.97 844 24.92 0.7 33.3 39 -11.8 10.8
04:30 1015 29.97 844 24.92 0.7 33.2 40 -11.6 11.1
04:35 1015 29.97 845 24.95 0.6 33.1 40 -11.5 11.2
04:40 1015 29.97 845 24.95 0.6 33 39 -11.9 10.5
04:45 1015 29.97 845 24.95 0.5 33 39 -11.8 10.7
04:50 1016 30 845 24.95 0.4 32.7 39 -11.9 10.5
04:55 1016 30 845 24.95 0.3 32.6 39 -12 10.5
05:00 1016 30 845 24.95 0.2 32.4 39 -12.2 10.1
05:05 1016 30 845 24.95 0.2 32.3 39 -12.1 10.2
05:10 1016 30 845 24.95 0.1 32.2 39 -12.1 10.1
05:15 1016 30 845 24.95 0.1 32.2 39 -12.2 10.1
05:20 1016 30 845 24.95 0.1 32.2 39 -12.2 10
05:25 1016 30 845 24.95 0 32.1 39 -12.3 9.8
05:30 1016 30 845 24.95 0 32.1 39 -12.2 10.1
05:35 1016 30 845 24.95 0.1 32.1 40 -12.1 10.3
05:40 1016 30 845 24.95 0 32 40 -12.1 10.3
05:45 1016 30 845 24.95 0.1 32.1 40 -12.1 10.3
05:50 1016 30 845 24.95 -0 32 40 -12 10.4
05:55 1016 30 845 24.95 -0.1 31.7 40 -12.1 10.3
06:00 1016 30 845 24.95 -0.2 31.6 41 -11.8 10.7
06:05 1016 30 845 24.95 -0.2 31.6 42 -11.6 11.1
06:10 1016 30 845 24.95 -0.3 31.5 42 -11.7 11
06:15 1016 30 845 24.95 -0.3 31.5 42 -11.7 10.9
06:20 1016 30 846 24.98 -0.5 31.1 42 -11.8 10.7
06:25 1016 30 846 24.98 -0.5 31.1 42 -11.8 10.7
06:30 1017 30.03 846 24.98 -0.5 31 42 -11.8 10.7
06:35 1016 30 846 24.98 -0.6 30.9 41 -12.2 10
06:40 1016 30 846 24.98 -0.8 30.6 41 -12.6 9.4
06:45 1016 30 846 24.98 -0.9 30.3 41 -12.5 9.4
06:50 1016 30 846 24.98 -0.9 30.3 41 -12.5 9.5
06:55 1016 30 846 24.98 -1 30.2 41 -12.7 9.1
07:00 1016 30 846 24.98 -1.1 30 41 -12.7 9.2
07:05 1016 30 846 24.98 -1.2 29.9 41 -12.8 9
07:10 1017 30.03 846 24.98 -1.3 29.7 41 -12.8 9
07:15 1017 30.03 846 24.98 -1.2 29.8 44 -12.1 10.2
07:20 1017 30.03 846 24.98 -1.1 30 42 -12.4 9.6
07:25 1017 30.03 846 24.98 -1.2 29.9 41 -12.9 8.9
07:30 1017 30.03 846 24.98 -1.2 29.8 40 -13.2 8.2
07:35 1017 30.03 846 24.98 -1.2 29.8 39 -13.4 7.9
07:40 1017 30.03 846 24.98 -1.3 29.7 39 -13.7 7.4
07:45 1017 30.03 846 24.98 -1.2 29.8 39 -13.7 7.4
07:50 1017 30.03 847 25.01 -1.2 29.8 38 -13.8 7.1
07:55 1017 30.03 846 24.98 -1.2 29.8 38 -13.8 7.2
08:00 1017 30.03 846 24.98 -1.2 29.9 38 -13.7 7.3
08:05 1017 30.03 847 25.01 -1.1 29.9 38 -13.6 7.5
08:10 1017 30.03 847 25.01 -1.1 30 38 -13.7 7.4
08:15 1017 30.03 847 25.01 -1.1 30.1 38 -13.7 7.4
08:20 1017 30.03 847 25.01 -1 30.2 38 -13.6 7.4
08:25 1017 30.03 847 25.01 -0.9 30.3 37 -13.8 7.1
08:30 1018 30.06 847 25.01 -0.9 30.3 38 -13.7 7.4
08:35 1018 30.06 847 25.01 -0.9 30.4 37 -13.8 7.1
08:40 1018 30.06 847 25.01 -0.9 30.4 37 -13.8 7.1
08:45 1018 30.06 847 25.01 -0.8 30.5 37 -13.8 7.1
08:50 1018 30.06 847 25.01 -0.8 30.5 38 -13.6 7.6
08:55 1018 30.06 847 25.01 -0.7 30.7 38 -13.5 7.7
09:00 1018 30.06 847 25.01 -0.7 30.8 38 -13.4 7.9
09:05 1018 30.06 847 25.01 -0.6 31 37 -13.6 7.4
09:10 1018 30.06 847 25.01 -0.6 31 37 -13.4 7.8
09:15 1018 30.06 847 25.01 -0.4 31.2 37 -13.6 7.6
09:20 1018 30.06 847 25.01 -0.5 31.1 36 -13.7 7.3
09:25 1018 30.06 847 25.01 -0.5 31.1 36 -13.8 7.1
09:30 1018 30.06 847 25.01 -0.5 31.2 36 -13.8 7.2
09:35 1018 30.06 847 25.01 -0.3 31.5 35 -14 6.9
09:40 1018 30.06 847 25.01 -0.2 31.6 36 -13.7 7.4
09:45 1018 30.06 847 25.01 -0 32 35 -13.8 7.2
09:50 1018 30.06 847 25.01 0.3 32.5 35 -13.6 7.5
09:55 1018 30.06 847 25.01 0.5 32.9 34 -13.7 7.3
10:00 1018 30.06 847 25.01 0.6 33.1 34 -13.4 7.8
10:05 1018 30.06 847 25.01 0.8 33.5 34 -13.5 7.7
10:10 1018 30.06 847 25.01 0.9 33.7 33 -13.7 7.3
10:15 1018 30.06 847 25.01 1 33.8 34 -13.2 8.3
10:20 1018 30.06 847 25.01 1 33.8 34 -13.3 8
10:25 1018 30.06 847 25.01 1 33.9 33 -13.5 7.7
10:30 1018 30.06 847 25.01 1 33.8 33 -13.4 7.9
10:35 1018 30.06 847 25.01 1.1 34 33 -13.4 7.8
10:40 1018 30.06 847 25.01 1.3 34.3 33 -13.4 7.8
10:45 1018 30.06 847 25.01 1.4 34.5 33 -13.3 8.1
10:50 1018 30.06 847 25.01 1.5 34.8 33 -13.1 8.4
10:55 1018 30.06 847 25.01 1.5 34.7 32 -13.3 8
11:00 1018 30.06 847 25.01 1.5 34.7 33 -13.3 8.1
11:05 1018 30.06 847 25.01 1.9 35.3 32 -13 8.6
11:10 1018 30.06 847 25.01 1.9 35.4 32 -13 8.6
11:15 1018 30.06 847 25.01 1.9 35.5 33 -12.9 8.8
11:20 1018 30.06 847 25.01 2.1 35.7 32 -13 8.6
11:25 1018 30.06 847 25.01 2.1 35.8 32 -12.8 8.9
11:30 1018 30.06 847 25.01 2.2 35.9 32 -12.9 8.7
11:35 1018 30.06 847 25.01 2.5 36.5 32 -12.8 9
11:40 1018 30.06 847 25.01 2.6 36.7 31 -12.7 9.1
11:45 1018 30.06 847 25.01 2.7 36.8 31 -12.8 9
11:50 1018 30.06 847 25.01 2.8 37.1 31 -12.7 9.2
11:55 1018 30.06 847 25.01 2.9 37.2 31 -12.5 9.5
12:00 1018 30.06 847 25.01 2.9 37.1 31 -12.5 9.5
12:05 1018 30.06 847 25.01 2.6 36.6 33 -12.2 10
12:10 1018 30.06 847 25.01 2.7 36.9 33 -12 10.3
12:15 1018 30.06 847 25.01 2.7 36.9 33 -12.2 10.1
12:20 1018 30.06 847 25.01 2.3 36.2 33 -12.3 9.9
12:25 1018 30.06 847 25.01 2.4 36.4 33 -12.2 10.1
12:30 1018 30.06 847 25.01 2.6 36.6 33 -12.1 10.3
12:35 1018 30.06 847 25.01 2.4 36.4 33 -12.4 9.8
12:40 1018 30.06 847 25.01 2.4 36.3 34 -12 10.4
12:45 1017 30.03 847 25.01 2.6 36.7 33 -12.1 10.2
12:50 1017 30.03 847 25.01 3 37.4 33 -11.9 10.7
12:55 1017 30.03 847 25.01 3.2 37.8 32 -11.8 10.7
13:00 1018 30.06 847 25.01 3.2 37.8 32 -11.8 10.8
13:05 1018 30.06 847 25.01 3.4 38.1 32 -11.6 11.1
13:10 1017 30.03 847 25.01 3 37.5 31 -12.4 9.8
13:15 1017 30.03 847 25.01 3.1 37.6 32 -12 10.4
13:20 1017 30.03 846 24.98 3.4 38.1 33 -11.5 11.2
13:25 1017 30.03 847 25.01 3.5 38.3 32 -11.7 11
13:30 1017 30.03 847 25.01 3.5 38.3 32 -11.8 10.7
13:35 1017 30.03 847 25.01 3.5 38.2 31 -11.9 10.5
13:40 1017 30.03 847 25.01 3.6 38.4 32 -11.6 11.2
13:45 1017 30.03 846 24.98 3.8 38.9 31 -11.7 10.9
13:50 1017 30.03 846 24.98 3.6 38.6 31 -11.8 10.7
13:55 1017 30.03 846 24.98 3.6 38.5 32 -11.6 11.2
14:00 1017 30.03 846 24.98 3.8 38.8 32 -11.4 11.5
14:05 1017 30.03 847 25.01 3.9 39 32 -11.3 11.7
14:10 1017 30.03 846 24.98 3.8 38.9 32 -11.4 11.5
14:15 1017 30.03 846 24.98 4 39.1 32 -11.3 11.6
14:20 1017 30.03 846 24.98 4 39.1 32 -11.3 11.6
14:25 1017 30.03 846 24.98 4.1 39.4 32 -11.3 11.7
14:30 1017 30.03 846 24.98 4.2 39.5 32 -11.2 11.8
14:35 1017 30.03 846 24.98 4.2 39.5 32 -11.3 11.7
14:40 1017 30.03 846 24.98 4.3 39.7 32 -11.1 12
14:45 1017 30.03 846 24.98 4.4 39.8 32 -11.1 12
14:50 1017 30.03 846 24.98 4.5 40.2 31 -11.1 12.1
14:55 1017 30.03 846 24.98 4.6 40.4 31 -11.1 12.1
15:00 1017 30.03 846 24.98 4.5 40.2 31 -11.1 12
15:05 1017 30.03 846 24.98 4.5 40.1 32 -10.9 12.3
15:10 1017 30.03 846 24.98 4.5 40.2 32 -10.9 12.4
15:15 1017 30.03 846 24.98 4.6 40.3 32 -10.7 12.7
15:20 1017 30.03 846 24.98 4.8 40.6 32 -10.7 12.8
15:25 1017 30.03 846 24.98 4.8 40.6 31 -10.9 12.4
15:30 1017 30.03 846 24.98 4.9 40.8 31 -11 12.3
15:35 1017 30.03 846 24.98 4.8 40.7 31 -10.8 12.6
15:40 1016 30 846 24.98 5 41 31 -10.8 12.5
15:45 1016 30 846 24.98 5.1 41.1 30 -11.1 12
15:50 1016 30 845 24.95 5 41.1 30 -11.1 12.1
15:55 1016 30 845 24.95 5.1 41.1 31 -10.7 12.7
16:00 1016 30 845 24.95 5.2 41.3 31 -10.8 12.5
16:05 1016 30 845 24.95 5.3 41.6 31 -10.6 12.9
16:10 1016 30 845 24.95 5.2 41.4 31 -10.7 12.8
16:15 1016 30 845 24.95 5.2 41.4 31 -10.6 13
16:20 1016 30 845 24.95 5.2 41.4 32 -10.2 13.6
16:25 1016 30 845 24.95 5.3 41.5 32 -10.3 13.5
16:30 1016 30 845 24.95 5.2 41.3 32 -10.3 13.5
16:35 1016 30 845 24.95 5.1 41.3 32 -10.3 13.4
16:40 1016 30 845 24.95 5.1 41.3 31 -10.5 13.2
16:45 1016 30 845 24.95 5.1 41.1 31 -10.5 13
16:50 1016 30 845 24.95 5 41.1 32 -10.5 13.1
16:55 1016 30 845 24.95 5.1 41.2 32 -10.4 13.4
17:00 1016 30 845 24.95 5.1 41.2 31 -10.5 13.1
17:05 1015 29.97 845 24.95 5.2 41.3 32 -10.2 13.6
17:10 1015 29.97 845 24.95 5.2 41.4 31 -10.4 13.3
17:15 1015 29.97 845 24.95 5.1 41.2 32 -10.5 13.1
17:20 1015 29.97 845 24.95 5.1 41.2 31 -10.6 12.9
17:25 1015 29.97 845 24.95 5 41.1 32 -10.4 13.3
17:30 1015 29.97 845 24.95 5.1 41.1 32 -10.3 13.4
17:35 1015 29.97 845 24.95 5.1 41.2 32 -10.2 13.6
17:40 1015 29.97 844 24.92 5.1 41.2 32 -10.2 13.7
17:45 1015 29.97 844 24.92 5 41.1 32 -10.3 13.4
17:50 1015 29.97 844 24.92 5 40.9 33 -10.1 13.8
17:55 1015 29.97 844 24.92 4.9 40.9 33 -10.2 13.6
18:00 1015 29.97 844 24.92 4.9 40.8 33 -10 13.9
18:05 1015 29.97 844 24.92 4.9 40.9 33 -10 13.9
18:10 1015 29.97 844 24.92 4.9 40.9 33 -10.1 13.8
18:15 1015 29.97 844 24.92 4.9 40.9 33 -10.1 13.8
18:20 1015 29.97 844 24.92 4.9 40.8 33 -9.9 14.1
18:25 1015 29.97 844 24.92 4.9 40.8 33 -10 14.1
18:30 1015 29.97 844 24.92 4.8 40.7 33 -10 14.1
18:35 1015 29.97 844 24.92 4.8 40.7 34 -9.9 14.2
18:40 1015 29.97 844 24.92 4.9 40.7 34 -9.9 14.2
18:45 1015 29.97 844 24.92 4.8 40.7 34 -9.9 14.1
18:50 1015 29.97 844 24.92 4.8 40.7 34 -9.9 14.1
18:55 1015 29.97 844 24.92 4.8 40.7 34 -9.6 14.7
19:00 1015 29.97 844 24.92 4.8 40.6 34 -9.9 14.2
19:05 1015 29.97 844 24.92 4.8 40.6 34 -9.8 14.4
19:10 1015 29.97 844 24.92 4.8 40.6 34 -9.9 14.2
19:15 1015 29.97 844 24.92 4.7 40.5 34 -9.8 14.4
19:20 1015 29.97 844 24.92 4.8 40.6 34 -9.9 14.1
19:25 1015 29.97 844 24.92 4.8 40.6 34 -10 14.1
19:30 1015 29.97 845 24.95 4.7 40.5 34 -9.9 14.2
19:35 1015 29.97 844 24.92 4.7 40.4 34 -10 13.9
19:40 1015 29.97 845 24.95 4.7 40.5 34 -9.9 14.2
19:45 1015 29.97 845 24.95 4.7 40.4 34 -10 14.1
19:50 1015 29.97 844 24.92 4.7 40.4 33 -10.2 13.7
19:55 1015 29.97 844 24.92 4.6 40.4 34 -10 14.1
20:00 1015 29.97 844 24.92 4.6 40.3 34 -9.9 14.1
20:05 1015 29.97 844 24.92 4.6 40.2 34 -9.9 14.2
20:10 1015 29.97 844 24.92 4.5 40.2 35 -9.8 14.4
20:15 1015 29.97 844 24.92 4.5 40.2 34 -9.9 14.1
20:20 1015 29.97 844 24.92 4.5 40.1 35 -9.8 14.3
20:25 1015 29.97 844 24.92 4.5 40 34 -10 14.1
20:30 1015 29.97 844 24.92 4.5 40.1 35 -9.6 14.6
20:35 1015 29.97 844 24.92 4.4 39.9 36 -9.6 14.8
20:40 1015 29.97 844 24.92 4.2 39.6 36 -9.5 15
20:45 1015 29.97 844 24.92 4.2 39.6 36 -9.7 14.5
20:50 1015 29.97 844 24.92 4.2 39.5 36 -9.6 14.8
20:55 1015 29.97 844 24.92 4.2 39.5 36 -9.5 14.9
21:00 1015 29.97 844 24.92 4.2 39.5 36 -9.7 14.6
21:05 1015 29.97 844 24.92 4.2 39.5 36 -9.5 14.9
21:10 1015 29.97 844 24.92 4.2 39.5 37 -9.3 15.3
21:15 1015 29.97 844 24.92 4.1 39.3 37 -9.2 15.4
21:20 1015 29.97 844 24.92 4 39.2 39 -8.9 16
21:25 1015 29.97 844 24.92 3.9 39 38 -9 15.8
21:30 1015 29.97 845 24.95 3.9 39 39 -8.8 16.1
21:35 1015 29.97 844 24.92 3.9 39 38 -9.2 15.4
21:40 1015 29.97 845 24.95 3.8 38.9 39 -9 15.8
21:45 1015 29.97 844 24.92 3.8 38.8 39 -9 15.7
21:50 1015 29.97 844 24.92 3.7 38.7 40 -8.8 16.1
21:55 1015 29.97 844 24.92 3.6 38.5 40 -8.7 16.3
22:00 1015 29.97 844 24.92 3.6 38.4 40 -8.9 15.9
22:05 1015 29.97 844 24.92 3.6 38.5 39 -9 15.7
22:10 1015 29.97 844 24.92 3.5 38.4 40 -8.8 16.1
22:15 1015 29.97 844 24.92 3.5 38.3 40 -8.8 16.2
22:20 1015 29.97 844 24.92 3.4 38.2 40 -8.9 15.9
22:25 1015 29.97 844 24.92 3.5 38.2 40 -8.8 16.2
22:30 1015 29.97 844 24.92 3.4 38.1 41 -8.5 16.7
22:35 1015 29.97 844 24.92 3.3 38 41 -8.8 16.1
22:40 1015 29.97 844 24.92 3.3 38 41 -8.7 16.4
22:45 1015 29.97 844 24.92 3.3 38 40 -9 15.8
22:50 1015 29.97 844 24.92 3.3 38 40 -8.9 16
22:55 1015 29.97 844 24.92 3.3 38 40 -8.9 16
23:00 1015 29.97 844 24.92 3.3 38 40 -8.9 16
23:05 1015 29.97 844 24.92 3.3 38 41 -8.8 16.2
23:10 1015 29.97 844 24.92 3.3 38 41 -8.9 16
23:15 1015 29.97 844 24.92 3.3 37.9 40 -8.9 15.9
23:20 1015 29.97 844 24.92 3.3 38 40 -8.9 16
23:25 1015 29.97 844 24.92 3.4 38.1 39 -9.1 15.6
23:30 1015 29.97 844 24.92 3.5 38.2 40 -9 15.8
23:35 1015 29.97 844 24.92 3.4 38.1 40 -8.8 16.2
23:40 1015 29.97 844 24.92 3.4 38.1 40 -9 15.7
23:45 1015 29.97 844 24.92 3.3 38 41 -8.8 16.2
23:50 1015 29.97 844 24.92 3.4 38.1 40 -9 15.8
23:55 1015 29.97 844 24.92 3.5 38.2 40 -8.8 16.2
24:00 1015 29.97 844 24.92 3.4 38.2 40 -8.9 16